sensor_id;sensor_type;location;lat;lon;timestamp;P1;durP1;ratioP1;P2;durP2;ratioP2
68653;SDS011;55636;51.108;13.622;2023-07-31T00:00:28;4.68;;;2.20;;
68653;SDS011;55636;51.108;13.622;2023-07-31T00:01:31;3.20;;;1.90;;
68653;SDS011;55636;51.108;13.622;2023-07-31T00:02:33;3.05;;;1.90;;
68653;SDS011;55636;51.108;13.622;2023-07-31T00:03:35;2.80;;;2.00;;
68653;SDS011;55636;51.108;13.622;2023-07-31T00:04:38;3.55;;;2.00;;
68653;SDS011;55636;51.108;13.622;2023-07-31T00:05:40;2.35;;;1.90;;
68653;SDS011;55636;51.108;13.622;2023-07-31T00:06:43;3.00;;;1.90;;
68653;SDS011;55636;51.108;13.622;2023-07-31T00:07:45;3.60;;;2.05;;
68653;SDS011;55636;51.108;13.622;2023-07-31T00:08:48;3.50;;;2.00;;
68653;SDS011;55636;51.108;13.622;2023-07-31T00:09:50;4.95;;;1.98;;
68653;SDS011;55636;51.108;13.622;2023-07-31T00:10:53;2.70;;;1.77;;
68653;SDS011;55636;51.108;13.622;2023-07-31T00:11:55;5.07;;;2.10;;
68653;SDS011;55636;51.108;13.622;2023-07-31T00:12:58;3.33;;;2.00;;
68653;SDS011;55636;51.108;13.622;2023-07-31T00:14:00;3.53;;;1.98;;
68653;SDS011;55636;51.108;13.622;2023-07-31T00:15:03;2.67;;;2.00;;
68653;SDS011;55636;51.108;13.622;2023-07-31T00:16:08;3.22;;;1.90;;
68653;SDS011;55636;51.108;13.622;2023-07-31T00:17:12;3.00;;;2.00;;
68653;SDS011;55636;51.108;13.622;2023-07-31T00:18:15;3.65;;;1.92;;
68653;SDS011;55636;51.108;13.622;2023-07-31T00:19:17;2.10;;;1.67;;
68653;SDS011;55636;51.108;13.622;2023-07-31T00:20:21;3.13;;;2.00;;
68653;SDS011;55636;51.108;13.622;2023-07-31T00:21:23;3.35;;;2.00;;
68653;SDS011;55636;51.108;13.622;2023-07-31T00:22:28;3.15;;;2.00;;
68653;SDS011;55636;51.108;13.622;2023-07-31T00:23:31;4.88;;;2.20;;
68653;SDS011;55636;51.108;13.622;2023-07-31T00:24:33;2.83;;;1.80;;
68653;SDS011;55636;51.108;13.622;2023-07-31T00:25:35;2.92;;;2.15;;
68653;SDS011;55636;51.108;13.622;2023-07-31T00:26:38;3.03;;;2.15;;
68653;SDS011;55636;51.108;13.622;2023-07-31T00:27:40;4.40;;;2.20;;
68653;SDS011;55636;51.108;13.622;2023-07-31T00:28:46;3.17;;;2.22;;
68653;SDS011;55636;51.108;13.622;2023-07-31T00:29:49;2.40;;;1.95;;
68653;SDS011;55636;51.108;13.622;2023-07-31T00:30:51;3.25;;;2.15;;
68653;SDS011;55636;51.108;13.622;2023-07-31T00:31:53;2.20;;;1.98;;
68653;SDS011;55636;51.108;13.622;2023-07-31T00:32:56;3.58;;;2.17;;
68653;SDS011;55636;51.108;13.622;2023-07-31T00:33:58;4.88;;;2.17;;
68653;SDS011;55636;51.108;13.622;2023-07-31T00:35:01;3.13;;;1.92;;
68653;SDS011;55636;51.108;13.622;2023-07-31T00:36:05;2.55;;;2.00;;
68653;SDS011;55636;51.108;13.622;2023-07-31T00:37:08;3.13;;;1.92;;
68653;SDS011;55636;51.108;13.622;2023-07-31T00:38:10;3.28;;;2.05;;
68653;SDS011;55636;51.108;13.622;2023-07-31T00:39:14;2.35;;;2.15;;
68653;SDS011;55636;51.108;13.622;2023-07-31T00:40:16;3.47;;;2.22;;
68653;SDS011;55636;51.108;13.622;2023-07-31T00:41:19;3.55;;;2.20;;
68653;SDS011;55636;51.108;13.622;2023-07-31T00:42:24;2.55;;;1.75;;
68653;SDS011;55636;51.108;13.622;2023-07-31T00:43:26;4.47;;;2.08;;
68653;SDS011;55636;51.108;13.622;2023-07-31T00:44:29;4.15;;;2.10;;
68653;SDS011;55636;51.108;13.622;2023-07-31T00:45:31;2.88;;;1.92;;
68653;SDS011;55636;51.108;13.622;2023-07-31T00:46:34;4.53;;;2.22;;
68653;SDS011;55636;51.108;13.622;2023-07-31T00:47:38;2.47;;;1.90;;
68653;SDS011;55636;51.108;13.622;2023-07-31T00:48:41;3.72;;;2.22;;
68653;SDS011;55636;51.108;13.622;2023-07-31T00:49:43;2.38;;;1.92;;
68653;SDS011;55636;51.108;13.622;2023-07-31T00:50:46;4.43;;;2.20;;
68653;SDS011;55636;51.108;13.622;2023-07-31T00:51:51;3.15;;;1.80;;
68653;SDS011;55636;51.108;13.622;2023-07-31T00:52:54;4.03;;;2.20;;
68653;SDS011;55636;51.108;13.622;2023-07-31T00:53:56;3.83;;;2.10;;
68653;SDS011;55636;51.108;13.622;2023-07-31T00:55:00;3.88;;;2.00;;
68653;SDS011;55636;51.108;13.622;2023-07-31T00:56:05;2.65;;;1.77;;
68653;SDS011;55636;51.108;13.622;2023-07-31T00:57:08;3.25;;;1.90;;
68653;SDS011;55636;51.108;13.622;2023-07-31T00:58:10;2.92;;;1.80;;
68653;SDS011;55636;51.108;13.622;2023-07-31T00:59:13;3.58;;;1.80;;
68653;SDS011;55636;51.108;13.622;2023-07-31T01:00:16;2.80;;;1.98;;
68653;SDS011;55636;51.108;13.622;2023-07-31T01:01:18;3.92;;;1.88;;
68653;SDS011;55636;51.108;13.622;2023-07-31T01:02:21;2.88;;;1.98;;
68653;SDS011;55636;51.108;13.622;2023-07-31T01:03:24;4.40;;;2.15;;
68653;SDS011;55636;51.108;13.622;2023-07-31T01:04:26;3.20;;;1.95;;
68653;SDS011;55636;51.108;13.622;2023-07-31T01:05:32;2.65;;;1.85;;
68653;SDS011;55636;51.108;13.622;2023-07-31T01:07:52;2.28;;;1.88;;
68653;SDS011;55636;51.108;13.622;2023-07-31T01:09:16;3.10;;;2.20;;
68653;SDS011;55636;51.108;13.622;2023-07-31T01:10:29;3.10;;;2.30;;
68653;SDS011;55636;51.108;13.622;2023-07-31T01:11:42;3.33;;;2.10;;
68653;SDS011;55636;51.108;13.622;2023-07-31T01:12:51;3.40;;;2.00;;
68653;SDS011;55636;51.108;13.622;2023-07-31T01:13:55;3.83;;;1.95;;
68653;SDS011;55636;51.108;13.622;2023-07-31T01:16:10;3.05;;;2.17;;
68653;SDS011;55636;51.108;13.622;2023-07-31T01:17:12;3.10;;;2.00;;
68653;SDS011;55636;51.108;13.622;2023-07-31T01:18:15;2.80;;;1.58;;
68653;SDS011;55636;51.108;13.622;2023-07-31T01:19:20;3.17;;;2.03;;
68653;SDS011;55636;51.108;13.622;2023-07-31T01:20:26;2.20;;;1.63;;
68653;SDS011;55636;51.108;13.622;2023-07-31T01:24:22;4.47;;;2.17;;
68653;SDS011;55636;51.108;13.622;2023-07-31T01:26:58;6.07;;;2.10;;
68653;SDS011;55636;51.108;13.622;2023-07-31T01:28:09;5.10;;;2.10;;
68653;SDS011;55636;51.108;13.622;2023-07-31T01:30:32;3.67;;;2.20;;
68653;SDS011;55636;51.108;13.622;2023-07-31T01:31:39;3.78;;;1.90;;
68653;SDS011;55636;51.108;13.622;2023-07-31T01:32:44;4.75;;;2.00;;
68653;SDS011;55636;51.108;13.622;2023-07-31T01:33:50;4.15;;;2.08;;
68653;SDS011;55636;51.108;13.622;2023-07-31T01:34:54;2.25;;;1.75;;
68653;SDS011;55636;51.108;13.622;2023-07-31T01:36:00;3.47;;;1.92;;
68653;SDS011;55636;51.108;13.622;2023-07-31T01:37:03;3.15;;;2.05;;
68653;SDS011;55636;51.108;13.622;2023-07-31T01:38:05;4.22;;;2.05;;
68653;SDS011;55636;51.108;13.622;2023-07-31T01:39:08;2.80;;;1.85;;
68653;SDS011;55636;51.108;13.622;2023-07-31T01:40:11;2.75;;;2.00;;
68653;SDS011;55636;51.108;13.622;2023-07-31T01:41:13;3.38;;;1.90;;
68653;SDS011;55636;51.108;13.622;2023-07-31T01:42:18;2.88;;;1.70;;
68653;SDS011;55636;51.108;13.622;2023-07-31T01:43:20;2.50;;;1.70;;
68653;SDS011;55636;51.108;13.622;2023-07-31T01:44:24;3.03;;;1.70;;
68653;SDS011;55636;51.108;13.622;2023-07-31T01:45:26;2.20;;;1.70;;
68653;SDS011;55636;51.108;13.622;2023-07-31T01:46:30;2.97;;;1.83;;
68653;SDS011;55636;51.108;13.622;2023-07-31T01:47:33;2.80;;;1.90;;
68653;SDS011;55636;51.108;13.622;2023-07-31T01:48:35;4.80;;;2.22;;
68653;SDS011;55636;51.108;13.622;2023-07-31T01:49:38;3.15;;;2.05;;
68653;SDS011;55636;51.108;13.622;2023-07-31T01:50:41;3.90;;;1.98;;
68653;SDS011;55636;51.108;13.622;2023-07-31T01:51:43;3.83;;;2.10;;
68653;SDS011;55636;51.108;13.622;2023-07-31T01:52:46;3.28;;;1.85;;
68653;SDS011;55636;51.108;13.622;2023-07-31T01:53:50;3.05;;;2.10;;
68653;SDS011;55636;51.108;13.622;2023-07-31T01:54:52;3.92;;;2.10;;
68653;SDS011;55636;51.108;13.622;2023-07-31T01:55:54;2.85;;;2.03;;
68653;SDS011;55636;51.108;13.622;2023-07-31T01:56:57;3.05;;;1.90;;
68653;SDS011;55636;51.108;13.622;2023-07-31T01:57:59;3.20;;;1.83;;
68653;SDS011;55636;51.108;13.622;2023-07-31T01:59:02;2.40;;;1.90;;
68653;SDS011;55636;51.108;13.622;2023-07-31T02:00:04;3.45;;;2.10;;
68653;SDS011;55636;51.108;13.622;2023-07-31T02:01:12;3.17;;;1.95;;
68653;SDS011;55636;51.108;13.622;2023-07-31T02:02:15;4.05;;;2.10;;
68653;SDS011;55636;51.108;13.622;2023-07-31T02:03:18;3.28;;;1.92;;
68653;SDS011;55636;51.108;13.622;2023-07-31T02:04:20;3.00;;;2.20;;
68653;SDS011;55636;51.108;13.622;2023-07-31T02:05:23;2.35;;;1.90;;
68653;SDS011;55636;51.108;13.622;2023-07-31T02:06:26;3.33;;;2.25;;
68653;SDS011;55636;51.108;13.622;2023-07-31T02:07:29;5.32;;;2.13;;
68653;SDS011;55636;51.108;13.622;2023-07-31T02:08:33;4.32;;;2.10;;
68653;SDS011;55636;51.108;13.622;2023-07-31T02:09:35;2.67;;;1.80;;
68653;SDS011;55636;51.108;13.622;2023-07-31T02:10:38;4.88;;;2.35;;
68653;SDS011;55636;51.108;13.622;2023-07-31T02:11:41;4.05;;;2.03;;
68653;SDS011;55636;51.108;13.622;2023-07-31T02:12:44;2.72;;;1.80;;
68653;SDS011;55636;51.108;13.622;2023-07-31T02:13:46;3.50;;;2.00;;
68653;SDS011;55636;51.108;13.622;2023-07-31T02:14:49;4.57;;;2.20;;
68653;SDS011;55636;51.108;13.622;2023-07-31T02:15:52;2.05;;;1.83;;
68653;SDS011;55636;51.108;13.622;2023-07-31T02:16:55;2.80;;;1.90;;
68653;SDS011;55636;51.108;13.622;2023-07-31T02:17:58;4.55;;;2.17;;
68653;SDS011;55636;51.108;13.622;2023-07-31T02:19:01;3.33;;;1.92;;
68653;SDS011;55636;51.108;13.622;2023-07-31T02:20:03;3.15;;;2.10;;
68653;SDS011;55636;51.108;13.622;2023-07-31T02:21:07;4.03;;;2.05;;
68653;SDS011;55636;51.108;13.622;2023-07-31T02:22:09;2.10;;;1.77;;
68653;SDS011;55636;51.108;13.622;2023-07-31T02:23:11;2.38;;;1.77;;
68653;SDS011;55636;51.108;13.622;2023-07-31T02:24:14;3.08;;;1.90;;
68653;SDS011;55636;51.108;13.622;2023-07-31T02:25:16;2.67;;;1.80;;
68653;SDS011;55636;51.108;13.622;2023-07-31T02:26:20;4.93;;;2.20;;
68653;SDS011;55636;51.108;13.622;2023-07-31T02:27:22;3.38;;;1.65;;
68653;SDS011;55636;51.108;13.622;2023-07-31T02:28:29;3.63;;;1.98;;
68653;SDS011;55636;51.108;13.622;2023-07-31T02:29:32;2.17;;;1.65;;
68653;SDS011;55636;51.108;13.622;2023-07-31T02:30:36;2.67;;;1.60;;
68653;SDS011;55636;51.108;13.622;2023-07-31T02:31:38;4.18;;;2.00;;
68653;SDS011;55636;51.108;13.622;2023-07-31T02:32:43;3.05;;;1.65;;
68653;SDS011;55636;51.108;13.622;2023-07-31T02:33:45;3.75;;;1.80;;
68653;SDS011;55636;51.108;13.622;2023-07-31T02:34:48;2.55;;;1.83;;
68653;SDS011;55636;51.108;13.622;2023-07-31T02:35:51;2.83;;;1.90;;
68653;SDS011;55636;51.108;13.622;2023-07-31T02:36:55;3.83;;;1.98;;
68653;SDS011;55636;51.108;13.622;2023-07-31T02:37:58;2.95;;;1.80;;
68653;SDS011;55636;51.108;13.622;2023-07-31T02:39:01;2.90;;;1.85;;
68653;SDS011;55636;51.108;13.622;2023-07-31T02:40:03;3.63;;;2.03;;
68653;SDS011;55636;51.108;13.622;2023-07-31T02:41:06;3.85;;;1.92;;
68653;SDS011;55636;51.108;13.622;2023-07-31T02:42:09;2.63;;;1.73;;
68653;SDS011;55636;51.108;13.622;2023-07-31T02:43:11;2.25;;;1.70;;
68653;SDS011;55636;51.108;13.622;2023-07-31T02:44:14;4.75;;;2.08;;
68653;SDS011;55636;51.108;13.622;2023-07-31T02:45:16;2.55;;;2.00;;
68653;SDS011;55636;51.108;13.622;2023-07-31T02:46:19;3.45;;;1.85;;
68653;SDS011;55636;51.108;13.622;2023-07-31T02:47:22;3.58;;;2.00;;
68653;SDS011;55636;51.108;13.622;2023-07-31T02:48:25;2.72;;;1.75;;
68653;SDS011;55636;51.108;13.622;2023-07-31T02:49:27;2.83;;;1.80;;
68653;SDS011;55636;51.108;13.622;2023-07-31T02:50:30;2.95;;;2.00;;
68653;SDS011;55636;51.108;13.622;2023-07-31T02:51:34;2.30;;;1.80;;
68653;SDS011;55636;51.108;13.622;2023-07-31T02:52:36;2.17;;;1.85;;
68653;SDS011;55636;51.108;13.622;2023-07-31T02:53:39;4.22;;;2.05;;
68653;SDS011;55636;51.108;13.622;2023-07-31T02:54:42;4.72;;;2.00;;
68653;SDS011;55636;51.108;13.622;2023-07-31T02:55:46;3.53;;;1.75;;
68653;SDS011;55636;51.108;13.622;2023-07-31T02:56:49;3.25;;;1.58;;
68653;SDS011;55636;51.108;13.622;2023-07-31T02:57:51;2.97;;;1.90;;
68653;SDS011;55636;51.108;13.622;2023-07-31T02:58:55;2.60;;;1.83;;
68653;SDS011;55636;51.108;13.622;2023-07-31T02:59:59;2.65;;;2.03;;
68653;SDS011;55636;51.108;13.622;2023-07-31T03:01:01;3.13;;;1.83;;
68653;SDS011;55636;51.108;13.622;2023-07-31T03:02:04;3.10;;;1.60;;
68653;SDS011;55636;51.108;13.622;2023-07-31T03:03:06;2.60;;;1.80;;
68653;SDS011;55636;51.108;13.622;2023-07-31T03:04:10;3.50;;;2.05;;
68653;SDS011;55636;51.108;13.622;2023-07-31T03:05:13;3.53;;;1.60;;
68653;SDS011;55636;51.108;13.622;2023-07-31T03:06:15;3.17;;;1.65;;
68653;SDS011;55636;51.108;13.622;2023-07-31T03:07:18;3.38;;;1.92;;
68653;SDS011;55636;51.108;13.622;2023-07-31T03:08:21;2.58;;;1.65;;
68653;SDS011;55636;51.108;13.622;2023-07-31T03:09:24;2.53;;;1.70;;
68653;SDS011;55636;51.108;13.622;2023-07-31T03:10:26;2.55;;;1.88;;
68653;SDS011;55636;51.108;13.622;2023-07-31T03:11:28;4.72;;;1.98;;
68653;SDS011;55636;51.108;13.622;2023-07-31T03:12:31;3.97;;;1.80;;
68653;SDS011;55636;51.108;13.622;2023-07-31T03:13:33;2.58;;;1.80;;
68653;SDS011;55636;51.108;13.622;2023-07-31T03:14:36;2.35;;;1.63;;
68653;SDS011;55636;51.108;13.622;2023-07-31T03:15:38;3.28;;;1.85;;
68653;SDS011;55636;51.108;13.622;2023-07-31T03:16:46;2.55;;;1.80;;
68653;SDS011;55636;51.108;13.622;2023-07-31T03:17:48;4.00;;;1.83;;
68653;SDS011;55636;51.108;13.622;2023-07-31T03:18:50;2.80;;;1.88;;
68653;SDS011;55636;51.108;13.622;2023-07-31T03:19:53;3.22;;;1.90;;
68653;SDS011;55636;51.108;13.622;2023-07-31T03:20:55;5.18;;;1.90;;
68653;SDS011;55636;51.108;13.622;2023-07-31T03:21:58;2.58;;;1.75;;
68653;SDS011;55636;51.108;13.622;2023-07-31T03:23:03;3.15;;;1.83;;
68653;SDS011;55636;51.108;13.622;2023-07-31T03:24:06;2.58;;;1.60;;
68653;SDS011;55636;51.108;13.622;2023-07-31T03:25:08;4.13;;;1.83;;
68653;SDS011;55636;51.108;13.622;2023-07-31T03:26:12;2.35;;;1.70;;
68653;SDS011;55636;51.108;13.622;2023-07-31T03:27:15;3.45;;;2.15;;
68653;SDS011;55636;51.108;13.622;2023-07-31T03:28:18;2.72;;;1.88;;
68653;SDS011;55636;51.108;13.622;2023-07-31T03:29:20;2.47;;;1.90;;
68653;SDS011;55636;51.108;13.622;2023-07-31T03:30:26;3.90;;;1.95;;
68653;SDS011;55636;51.108;13.622;2023-07-31T03:31:29;1.90;;;1.70;;
68653;SDS011;55636;51.108;13.622;2023-07-31T03:32:32;4.53;;;1.98;;
68653;SDS011;55636;51.108;13.622;2023-07-31T03:33:35;2.70;;;1.83;;
68653;SDS011;55636;51.108;13.622;2023-07-31T03:34:37;2.75;;;1.67;;
68653;SDS011;55636;51.108;13.622;2023-07-31T03:35:40;3.10;;;1.90;;
68653;SDS011;55636;51.108;13.622;2023-07-31T03:36:42;3.05;;;1.88;;
68653;SDS011;55636;51.108;13.622;2023-07-31T03:37:45;2.60;;;1.80;;
68653;SDS011;55636;51.108;13.622;2023-07-31T03:38:47;3.85;;;1.80;;
68653;SDS011;55636;51.108;13.622;2023-07-31T03:39:50;2.10;;;1.90;;
68653;SDS011;55636;51.108;13.622;2023-07-31T03:40:52;3.03;;;2.03;;
68653;SDS011;55636;51.108;13.622;2023-07-31T03:41:54;3.85;;;2.13;;
68653;SDS011;55636;51.108;13.622;2023-07-31T03:42:57;2.70;;;1.85;;
68653;SDS011;55636;51.108;13.622;2023-07-31T03:43:59;2.30;;;1.88;;
68653;SDS011;55636;51.108;13.622;2023-07-31T03:45:02;2.45;;;1.80;;
68653;SDS011;55636;51.108;13.622;2023-07-31T03:46:04;3.63;;;1.73;;
68653;SDS011;55636;51.108;13.622;2023-07-31T03:47:07;2.33;;;1.95;;
68653;SDS011;55636;51.108;13.622;2023-07-31T03:48:11;6.00;;;2.13;;
68653;SDS011;55636;51.108;13.622;2023-07-31T03:49:14;2.55;;;2.08;;
68653;SDS011;55636;51.108;13.622;2023-07-31T03:50:16;4.45;;;2.10;;
68653;SDS011;55636;51.108;13.622;2023-07-31T03:51:20;4.00;;;1.73;;
68653;SDS011;55636;51.108;13.622;2023-07-31T03:52:24;3.38;;;1.90;;
68653;SDS011;55636;51.108;13.622;2023-07-31T03:53:26;4.15;;;2.05;;
68653;SDS011;55636;51.108;13.622;2023-07-31T03:54:29;2.33;;;2.00;;
68653;SDS011;55636;51.108;13.622;2023-07-31T03:55:32;3.95;;;2.13;;
68653;SDS011;55636;51.108;13.622;2023-07-31T03:56:35;3.15;;;2.17;;
68653;SDS011;55636;51.108;13.622;2023-07-31T03:57:40;4.28;;;2.33;;
68653;SDS011;55636;51.108;13.622;2023-07-31T03:58:43;4.13;;;2.28;;
68653;SDS011;55636;51.108;13.622;2023-07-31T03:59:45;4.15;;;2.40;;
68653;SDS011;55636;51.108;13.622;2023-07-31T04:00:48;4.20;;;2.25;;
68653;SDS011;55636;51.108;13.622;2023-07-31T04:01:50;2.33;;;1.95;;
68653;SDS011;55636;51.108;13.622;2023-07-31T04:02:53;4.32;;;2.40;;
68653;SDS011;55636;51.108;13.622;2023-07-31T04:03:55;3.70;;;2.05;;
68653;SDS011;55636;51.108;13.622;2023-07-31T04:04:58;3.20;;;1.88;;
68653;SDS011;55636;51.108;13.622;2023-07-31T04:06:00;3.38;;;2.38;;
68653;SDS011;55636;51.108;13.622;2023-07-31T04:07:03;3.85;;;2.10;;
68653;SDS011;55636;51.108;13.622;2023-07-31T04:08:05;4.40;;;2.38;;
68653;SDS011;55636;51.108;13.622;2023-07-31T04:09:08;2.55;;;2.13;;
68653;SDS011;55636;51.108;13.622;2023-07-31T04:10:10;2.72;;;1.83;;
68653;SDS011;55636;51.108;13.622;2023-07-31T04:11:14;3.03;;;2.05;;
68653;SDS011;55636;51.108;13.622;2023-07-31T04:12:17;4.35;;;2.20;;
68653;SDS011;55636;51.108;13.622;2023-07-31T04:13:21;3.85;;;2.17;;
68653;SDS011;55636;51.108;13.622;2023-07-31T04:14:24;5.10;;;2.40;;
68653;SDS011;55636;51.108;13.622;2023-07-31T04:15:26;2.47;;;2.08;;
68653;SDS011;55636;51.108;13.622;2023-07-31T04:16:29;3.83;;;2.33;;
68653;SDS011;55636;51.108;13.622;2023-07-31T04:17:31;3.22;;;1.92;;
68653;SDS011;55636;51.108;13.622;2023-07-31T04:18:34;1.90;;;1.75;;
68653;SDS011;55636;51.108;13.622;2023-07-31T04:19:36;3.45;;;2.20;;
68653;SDS011;55636;51.108;13.622;2023-07-31T04:20:39;2.63;;;2.20;;
68653;SDS011;55636;51.108;13.622;2023-07-31T04:21:42;3.45;;;2.10;;
68653;SDS011;55636;51.108;13.622;2023-07-31T04:22:45;3.10;;;2.10;;
68653;SDS011;55636;51.108;13.622;2023-07-31T04:23:47;3.50;;;2.22;;
68653;SDS011;55636;51.108;13.622;2023-07-31T04:24:50;3.05;;;2.10;;
68653;SDS011;55636;51.108;13.622;2023-07-31T04:25:52;3.95;;;2.10;;
68653;SDS011;55636;51.108;13.622;2023-07-31T04:26:55;3.90;;;2.45;;
68653;SDS011;55636;51.108;13.622;2023-07-31T04:27:58;2.40;;;1.90;;
68653;SDS011;55636;51.108;13.622;2023-07-31T04:29:00;3.92;;;2.22;;
68653;SDS011;55636;51.108;13.622;2023-07-31T04:30:03;3.53;;;2.50;;
68653;SDS011;55636;51.108;13.622;2023-07-31T04:31:06;3.40;;;2.10;;
68653;SDS011;55636;51.108;13.622;2023-07-31T04:32:08;3.10;;;2.15;;
68653;SDS011;55636;51.108;13.622;2023-07-31T04:33:10;4.90;;;2.10;;
68653;SDS011;55636;51.108;13.622;2023-07-31T04:34:13;2.42;;;2.10;;
68653;SDS011;55636;51.108;13.622;2023-07-31T04:35:16;4.32;;;2.30;;
68653;SDS011;55636;51.108;13.622;2023-07-31T04:36:19;4.30;;;2.10;;
68653;SDS011;55636;51.108;13.622;2023-07-31T04:37:21;3.75;;;2.20;;
68653;SDS011;55636;51.108;13.622;2023-07-31T04:38:24;5.28;;;2.20;;
68653;SDS011;55636;51.108;13.622;2023-07-31T04:39:26;3.97;;;2.20;;
68653;SDS011;55636;51.108;13.622;2023-07-31T04:40:29;3.13;;;2.20;;
68653;SDS011;55636;51.108;13.622;2023-07-31T04:41:31;3.00;;;2.20;;
68653;SDS011;55636;51.108;13.622;2023-07-31T04:42:33;2.75;;;2.20;;
68653;SDS011;55636;51.108;13.622;2023-07-31T04:43:36;4.75;;;2.28;;
68653;SDS011;55636;51.108;13.622;2023-07-31T04:44:42;3.40;;;2.20;;
68653;SDS011;55636;51.108;13.622;2023-07-31T04:45:47;3.50;;;2.28;;
68653;SDS011;55636;51.108;13.622;2023-07-31T04:46:50;3.40;;;2.10;;
68653;SDS011;55636;51.108;13.622;2023-07-31T04:47:53;2.92;;;2.20;;
68653;SDS011;55636;51.108;13.622;2023-07-31T04:48:56;3.95;;;2.20;;
68653;SDS011;55636;51.108;13.622;2023-07-31T04:49:58;3.97;;;2.30;;
68653;SDS011;55636;51.108;13.622;2023-07-31T04:51:01;3.17;;;2.17;;
68653;SDS011;55636;51.108;13.622;2023-07-31T04:52:03;4.18;;;2.50;;
68653;SDS011;55636;51.108;13.622;2023-07-31T04:53:08;2.67;;;2.13;;
68653;SDS011;55636;51.108;13.622;2023-07-31T04:54:10;3.70;;;2.08;;
68653;SDS011;55636;51.108;13.622;2023-07-31T04:55:15;3.92;;;1.92;;
68653;SDS011;55636;51.108;13.622;2023-07-31T04:56:17;5.00;;;2.42;;
68653;SDS011;55636;51.108;13.622;2023-07-31T04:57:21;4.47;;;2.30;;
68653;SDS011;55636;51.108;13.622;2023-07-31T04:58:24;3.17;;;2.08;;
68653;SDS011;55636;51.108;13.622;2023-07-31T04:59:27;2.83;;;2.22;;
68653;SDS011;55636;51.108;13.622;2023-07-31T05:00:29;3.63;;;2.40;;
68653;SDS011;55636;51.108;13.622;2023-07-31T05:01:32;4.45;;;2.30;;
68653;SDS011;55636;51.108;13.622;2023-07-31T05:02:35;2.35;;;2.10;;
68653;SDS011;55636;51.108;13.622;2023-07-31T05:03:37;4.07;;;2.30;;
68653;SDS011;55636;51.108;13.622;2023-07-31T05:04:40;2.95;;;2.15;;
68653;SDS011;55636;51.108;13.622;2023-07-31T05:05:43;3.45;;;2.22;;
68653;SDS011;55636;51.108;13.622;2023-07-31T05:06:46;3.20;;;2.30;;
68653;SDS011;55636;51.108;13.622;2023-07-31T05:07:49;3.28;;;2.30;;
68653;SDS011;55636;51.108;13.622;2023-07-31T05:08:52;3.75;;;2.20;;
68653;SDS011;55636;51.108;13.622;2023-07-31T05:09:55;4.30;;;2.33;;
68653;SDS011;55636;51.108;13.622;2023-07-31T05:10:59;3.88;;;2.15;;
68653;SDS011;55636;51.108;13.622;2023-07-31T05:12:04;3.30;;;2.22;;
68653;SDS011;55636;51.108;13.622;2023-07-31T05:13:07;4.03;;;2.40;;
68653;SDS011;55636;51.108;13.622;2023-07-31T05:14:09;2.25;;;1.98;;
68653;SDS011;55636;51.108;13.622;2023-07-31T05:15:13;3.58;;;2.30;;
68653;SDS011;55636;51.108;13.622;2023-07-31T05:16:17;3.58;;;2.40;;
68653;SDS011;55636;51.108;13.622;2023-07-31T05:17:20;4.05;;;2.17;;
68653;SDS011;55636;51.108;13.622;2023-07-31T05:18:22;3.97;;;2.50;;
68653;SDS011;55636;51.108;13.622;2023-07-31T05:19:24;3.47;;;2.30;;
68653;SDS011;55636;51.108;13.622;2023-07-31T05:20:27;5.68;;;2.45;;
68653;SDS011;55636;51.108;13.622;2023-07-31T05:21:29;4.28;;;2.38;;
68653;SDS011;55636;51.108;13.622;2023-07-31T05:22:32;3.63;;;2.30;;
68653;SDS011;55636;51.108;13.622;2023-07-31T05:23:34;2.42;;;2.03;;
68653;SDS011;55636;51.108;13.622;2023-07-31T05:24:37;4.45;;;2.25;;
68653;SDS011;55636;51.108;13.622;2023-07-31T05:25:39;3.80;;;2.10;;
68653;SDS011;55636;51.108;13.622;2023-07-31T05:26:41;2.88;;;2.15;;
68653;SDS011;55636;51.108;13.622;2023-07-31T05:27:44;4.20;;;2.30;;
68653;SDS011;55636;51.108;13.622;2023-07-31T05:28:46;3.67;;;2.30;;
68653;SDS011;55636;51.108;13.622;2023-07-31T05:29:49;4.03;;;2.22;;
68653;SDS011;55636;51.108;13.622;2023-07-31T05:30:51;6.03;;;2.60;;
68653;SDS011;55636;51.108;13.622;2023-07-31T05:31:53;4.70;;;2.20;;
68653;SDS011;55636;51.108;13.622;2023-07-31T05:32:56;3.40;;;2.20;;
68653;SDS011;55636;51.108;13.622;2023-07-31T05:33:58;4.10;;;2.30;;
68653;SDS011;55636;51.108;13.622;2023-07-31T05:35:01;2.80;;;2.20;;
68653;SDS011;55636;51.108;13.622;2023-07-31T05:36:03;2.78;;;2.35;;
68653;SDS011;55636;51.108;13.622;2023-07-31T05:37:06;3.30;;;2.17;;
68653;SDS011;55636;51.108;13.622;2023-07-31T05:38:08;3.38;;;2.25;;
68653;SDS011;55636;51.108;13.622;2023-07-31T05:39:12;2.92;;;2.35;;
68653;SDS011;55636;51.108;13.622;2023-07-31T05:40:14;2.95;;;2.20;;
68653;SDS011;55636;51.108;13.622;2023-07-31T05:41:17;2.35;;;2.08;;
68653;SDS011;55636;51.108;13.622;2023-07-31T05:42:20;3.85;;;2.40;;
68653;SDS011;55636;51.108;13.622;2023-07-31T05:43:23;2.88;;;2.53;;
68653;SDS011;55636;51.108;13.622;2023-07-31T05:44:26;2.42;;;2.20;;
68653;SDS011;55636;51.108;13.622;2023-07-31T05:45:28;4.30;;;2.47;;
68653;SDS011;55636;51.108;13.622;2023-07-31T05:46:31;4.93;;;2.33;;
68653;SDS011;55636;51.108;13.622;2023-07-31T05:47:33;2.60;;;2.05;;
68653;SDS011;55636;51.108;13.622;2023-07-31T05:48:36;3.70;;;2.35;;
68653;SDS011;55636;51.108;13.622;2023-07-31T05:49:38;2.40;;;2.20;;
68653;SDS011;55636;51.108;13.622;2023-07-31T05:50:41;5.07;;;2.42;;
68653;SDS011;55636;51.108;13.622;2023-07-31T05:51:45;3.75;;;2.50;;
68653;SDS011;55636;51.108;13.622;2023-07-31T05:52:47;3.95;;;2.58;;
68653;SDS011;55636;51.108;13.622;2023-07-31T05:53:50;6.55;;;2.20;;
68653;SDS011;55636;51.108;13.622;2023-07-31T05:54:52;5.05;;;2.40;;
68653;SDS011;55636;51.108;13.622;2023-07-31T05:55:55;7.05;;;2.60;;
68653;SDS011;55636;51.108;13.622;2023-07-31T05:56:57;3.67;;;2.20;;
68653;SDS011;55636;51.108;13.622;2023-07-31T05:57:59;4.88;;;2.63;;
68653;SDS011;55636;51.108;13.622;2023-07-31T05:59:02;6.05;;;2.53;;
68653;SDS011;55636;51.108;13.622;2023-07-31T06:00:05;4.22;;;2.72;;
68653;SDS011;55636;51.108;13.622;2023-07-31T06:01:08;3.45;;;2.42;;
68653;SDS011;55636;51.108;13.622;2023-07-31T06:02:11;5.40;;;2.65;;
68653;SDS011;55636;51.108;13.622;2023-07-31T06:03:13;5.35;;;2.90;;
68653;SDS011;55636;51.108;13.622;2023-07-31T06:04:16;6.97;;;2.90;;
68653;SDS011;55636;51.108;13.622;2023-07-31T06:05:18;5.35;;;2.70;;
68653;SDS011;55636;51.108;13.622;2023-07-31T06:06:21;3.63;;;2.60;;
68653;SDS011;55636;51.108;13.622;2023-07-31T06:07:23;7.20;;;2.50;;
68653;SDS011;55636;51.108;13.622;2023-07-31T06:08:26;3.80;;;2.53;;
68653;SDS011;55636;51.108;13.622;2023-07-31T06:09:28;6.18;;;2.60;;
68653;SDS011;55636;51.108;13.622;2023-07-31T06:10:31;5.80;;;2.67;;
68653;SDS011;55636;51.108;13.622;2023-07-31T06:11:33;4.18;;;2.40;;
68653;SDS011;55636;51.108;13.622;2023-07-31T06:12:36;6.40;;;2.70;;
68653;SDS011;55636;51.108;13.622;2023-07-31T06:13:39;4.30;;;2.67;;
68653;SDS011;55636;51.108;13.622;2023-07-31T06:14:44;4.00;;;2.30;;
68653;SDS011;55636;51.108;13.622;2023-07-31T06:15:47;3.83;;;2.45;;
68653;SDS011;55636;51.108;13.622;2023-07-31T06:16:49;4.00;;;2.47;;
68653;SDS011;55636;51.108;13.622;2023-07-31T06:17:52;4.00;;;2.60;;
68653;SDS011;55636;51.108;13.622;2023-07-31T06:18:56;4.45;;;3.17;;
68653;SDS011;55636;51.108;13.622;2023-07-31T06:19:58;5.15;;;2.83;;
68653;SDS011;55636;51.108;13.622;2023-07-31T06:21:01;4.43;;;2.90;;
68653;SDS011;55636;51.108;13.622;2023-07-31T06:22:04;4.88;;;2.78;;